Time;durP1;ratioP1;P1;durP2;ratioP2;P2;SDS_P1;SDS_P2;PMS_P1;PMS_P2;Temp;Humidity;BMP_temperature;BMP_pressure;BME280_temperature;BME280_humidity;BME280_pressure;Samples;Min_cycle;Max_cycle;Signal;HPM_P1;HPM_P2
2023/02/17 00:03:27;;;;;;;8.70;7.80;;;;;;;6.52;100.00;98811.00;15276583;19;20058;-46
2023/02/17 00:08:52;;;;;;;8.20;7.40;;;;;;;6.55;100.00;98809.91;15273519;19;20014;-46
2023/02/17 00:14:21;;;;;;;9.18;7.30;;;;;;;6.60;100.00;98818.41;15273813;19;20025;-49
2023/02/17 00:19:45;;;;;;;9.25;7.30;;;;;;;6.67;100.00;98827.63;15279101;19;20039;-47
2023/02/17 00:25:10;;;;;;;9.10;7.10;;;;;;;6.75;100.00;98827.00;15280794;19;20086;-47
2023/02/17 00:30:39;;;;;;;8.23;6.80;;;;;;;6.81;100.00;98814.94;15278113;19;20022;-50
2023/02/17 00:36:03;;;;;;;8.35;7.05;;;;;;;6.86;100.00;98807.38;15275089;19;20016;-46
2023/02/17 00:41:28;;;;;;;7.13;6.35;;;;;;;6.92;100.00;98805.03;15268783;19;20026;-48
2023/02/17 00:46:56;;;;;;;7.47;6.32;;;;;;;6.96;100.00;98819.00;15273850;19;20021;-48
2023/02/17 00:52:20;;;;;;;6.72;5.78;;;;;;;6.99;100.00;98810.72;15269328;19;20479;-48
2023/02/17 00:57:45;;;;;;;7.05;6.30;;;;;;;7.02;100.00;98807.78;15269897;19;20086;-48
2023/02/17 01:03:12;;;;;;;7.97;6.35;;;;;;;7.05;100.00;98804.84;15272885;19;20017;-48
2023/02/17 01:08:39;;;;;;;7.25;5.90;;;;;;;7.07;100.00;98792.16;15274707;19;20035;-47
2023/02/17 01:14:06;;;;;;;6.60;5.95;;;;;;;7.14;100.00;98788.94;15265802;19;20022;-47
2023/02/17 01:19:34;;;;;;;6.40;5.80;;;;;;;7.15;100.00;98779.94;15272355;19;20026;-48
2023/02/17 01:24:59;;;;;;;7.20;6.15;;;;;;;7.14;100.00;98767.53;15277476;19;20395;-47
2023/02/17 01:30:24;;;;;;;6.90;6.05;;;;;;;7.15;100.00;98763.88;15272002;19;20030;-48
2023/02/17 01:35:53;;;;;;;7.00;6.22;;;;;;;7.14;100.00;98779.09;15271248;19;20026;-48
2023/02/17 01:41:21;;;;;;;7.68;5.97;;;;;;;7.12;100.00;98777.50;15270451;19;20082;-47
2023/02/17 01:46:47;;;;;;;9.27;6.28;;;;;;;7.14;100.00;98765.72;15273021;19;20018;-47
2023/02/17 01:52:22;;;;;;;6.15;5.60;;;;;;;7.16;100.00;98755.72;15268247;19;20029;-48
2023/02/17 01:57:50;;;;;;;6.88;5.30;;;;;;;7.21;100.00;98752.63;15266143;19;20044;-48
2023/02/17 02:03:23;;;;;;;6.28;5.15;;;;;;;7.25;100.00;98748.69;15265829;19;20485;-47
2023/02/17 02:08:57;;;;;;;6.60;5.20;;;;;;;7.32;100.00;98731.13;14753235;19;10001167;-48
2023/02/17 02:14:23;;;;;;;5.63;4.85;;;;;;;7.38;100.00;98727.06;15251627;19;20359;-49
2023/02/17 02:20:20;;;;;;;6.50;5.30;;;;;;;7.42;100.00;98719.59;15262831;19;20014;-48
2023/02/17 02:26:23;;;;;;;5.55;5.03;;;;;;;7.43;100.00;98714.09;15268844;19;20702;-47
2023/02/17 02:32:03;;;;;;;7.55;5.35;;;;;;;7.41;100.00;98716.03;15265570;19;20018;-48
2023/02/17 02:37:35;;;;;;;8.25;5.40;;;;;;;7.42;100.00;98709.69;15266637;19;20039;-47
2023/02/17 02:43:03;;;;;;;5.65;5.03;;;;;;;7.38;100.00;98710.97;15264036;19;20015;-47
2023/02/17 02:48:28;;;;;;;5.45;4.90;;;;;;;7.33;100.00;98707.84;15257823;19;20043;-48
2023/02/17 02:54:19;;;;;;;5.72;4.65;;;;;;;7.42;100.00;98692.78;15265522;19;20018;-48
2023/02/17 02:59:56;;;;;;;5.38;4.68;;;;;;;7.46;100.00;98686.19;15266800;19;20483;-46
2023/02/17 03:05:38;;;;;;;6.30;4.50;;;;;;;7.49;100.00;98673.34;15266811;19;20429;-46
2023/02/17 03:11:06;;;;;;;5.75;4.55;;;;;;;7.49;100.00;98654.59;15260936;19;20018;-48
2023/02/17 03:16:31;;;;;;;5.45;4.68;;;;;;;7.64;100.00;98649.69;15266584;19;20018;-46
2023/02/17 03:22:00;;;;;;;5.28;4.40;;;;;;;7.67;100.00;98636.00;15256864;19;20022;-46
2023/02/17 03:27:28;;;;;;;6.03;4.68;;;;;;;7.69;100.00;98639.41;15265465;19;20030;-48
2023/02/17 03:32:53;;;;;;;5.45;4.32;;;;;;;7.65;100.00;98642.47;15260247;19;20021;-49
2023/02/17 03:38:18;;;;;;;5.60;4.70;;;;;;;7.62;100.00;98643.59;15262285;19;20035;-49
2023/02/17 03:43:47;;;;;;;5.53;4.75;;;;;;;7.62;100.00;98645.44;15262890;19;20019;-49
2023/02/17 03:49:11;;;;;;;4.88;4.38;;;;;;;7.59;100.00;98641.19;15262213;19;20013;-48
2023/02/17 03:54:36;;;;;;;4.88;4.38;;;;;;;7.58;100.00;98630.59;15252798;19;20484;-47
2023/02/17 04:00:03;;;;;;;5.00;4.50;;;;;;;7.55;100.00;98642.47;15258902;19;20023;-50
2023/02/17 04:05:34;;;;;;;6.05;4.90;;;;;;;7.55;100.00;98639.78;15261168;19;20480;-47
2023/02/17 04:11:02;;;;;;;5.35;4.85;;;;;;;7.51;100.00;98643.72;15255725;19;20035;-47
2023/02/17 04:16:29;;;;;;;5.25;4.47;;;;;;;7.51;100.00;98649.06;15248997;19;20109;-49
2023/02/17 04:21:55;;;;;;;4.70;4.30;;;;;;;7.51;100.00;98641.03;15261982;19;20040;-48
2023/02/17 04:27:19;;;;;;;4.50;4.10;;;;;;;7.51;100.00;98646.41;15263993;19;20030;-49
2023/02/17 04:32:47;;;;;;;5.90;4.18;;;;;;;7.49;100.00;98654.59;15272428;19;20023;-48
2023/02/17 04:38:13;;;;;;;4.60;4.20;;;;;;;7.47;100.00;98651.19;15274805;19;20024;-48
2023/02/17 04:43:38;;;;;;;4.70;4.05;;;;;;;7.50;100.00;98640.19;15274930;19;20024;-47
2023/02/17 04:49:05;;;;;;;4.35;3.72;;;;;;;7.49;100.00;98645.69;15274153;19;20022;-49
2023/02/17 04:54:30;;;;;;;3.88;3.53;;;;;;;7.51;100.00;98643.72;15271862;19;20094;-49
2023/02/17 04:59:55;;;;;;;3.65;3.35;;;;;;;7.50;100.00;98629.47;15268452;19;20347;-51
2023/02/17 05:05:22;;;;;;;4.22;3.60;;;;;;;7.49;100.00;98632.28;15266906;19;20019;-48
2023/02/17 05:10:48;;;;;;;4.10;3.75;;;;;;;7.45;100.00;98620.16;15278100;19;20014;-53
2023/02/17 05:16:13;;;;;;;3.85;3.55;;;;;;;7.48;100.00;98611.81;15278430;19;20093;-48
2023/02/17 05:21:40;;;;;;;3.70;3.40;;;;;;;7.47;100.00;98610.97;15278031;19;20018;-49
2023/02/17 05:27:05;;;;;;;4.30;3.90;;;;;;;7.51;100.00;98619.59;15290238;19;20015;-55
2023/02/17 05:32:30;;;;;;;4.43;4.03;;;;;;;7.49;100.00;98617.06;15315978;19;20022;-53
2023/02/17 05:37:57;;;;;;;4.70;4.10;;;;;;;7.53;100.00;98622.97;15271051;19;20018;-53
2023/02/17 05:43:22;;;;;;;4.60;4.20;;;;;;;7.52;100.00;98615.91;15270483;19;20739;-50
2023/02/17 05:48:47;;;;;;;4.55;4.15;;;;;;;7.52;100.00;98616.78;15270599;19;20048;-51
2023/02/17 05:54:15;;;;;;;4.55;4.15;;;;;;;7.53;100.00;98615.78;15270410;19;20657;-49
2023/02/17 05:59:40;;;;;;;6.05;4.10;;;;;;;7.54;100.00;98620.16;15260520;19;20018;-55
2023/02/17 06:05:11;;;;;;;5.25;4.47;;;;;;;7.54;100.00;98614.78;15270061;19;20022;-49
2023/02/17 06:10:38;;;;;;;6.23;4.67;;;;;;;7.55;100.00;98623.69;15269858;19;20103;-53
2023/02/17 06:16:03;;;;;;;4.80;4.30;;;;;;;7.52;100.00;98615.91;15275816;19;20041;-50
2023/02/17 06:21:28;;;;;;;5.65;4.20;;;;;;;7.53;100.00;98605.06;15267798;19;20035;-53
2023/02/17 06:26:55;;;;;;;4.97;4.47;;;;;;;7.52;100.00;98611.41;15270693;19;20111;-52
2023/02/17 06:32:20;;;;;;;4.90;4.45;;;;;;;7.51;100.00;98609.72;15259386;19;20513;-52
2023/02/17 06:37:44;;;;;;;4.68;4.20;;;;;;;7.52;100.00;98632.00;15269065;19;20035;-48
2023/02/17 06:43:11;;;;;;;4.75;4.30;;;;;;;7.52;100.00;98632.00;15267044;19;20094;-51
2023/02/17 06:48:36;;;;;;;4.30;3.90;;;;;;;7.51;100.00;98630.31;15268328;19;20032;-49
2023/02/17 06:54:01;;;;;;;4.82;4.00;;;;;;;7.52;100.00;98607.88;15268767;19;20747;-57
2023/02/17 06:59:28;;;;;;;4.28;3.83;;;;;;;7.54;100.00;98603.22;15264698;19;20078;-50
2023/02/17 07:04:59;;;;;;;3.83;3.47;;;;;;;7.57;100.00;98597.59;15262031;19;20483;-52
2023/02/17 07:10:25;;;;;;;4.25;3.78;;;;;;;7.60;100.00;98599.16;15267100;19;20036;-48
2023/02/17 07:15:52;;;;;;;4.07;3.67;;;;;;;7.61;100.00;98599.00;15267891;19;20010;-51
2023/02/17 07:21:17;;;;;;;3.50;3.20;;;;;;;7.64;100.00;98596.06;15266366;19;20098;-49
2023/02/17 07:26:44;;;;;;;3.78;3.35;;;;;;;7.67;100.00;98597.59;15269345;19;20024;-52
2023/02/17 07:32:12;;;;;;;5.18;3.20;;;;;;;7.69;100.00;98607.22;15264709;19;20018;-49
2023/02/17 07:37:36;;;;;;;3.50;3.20;;;;;;;7.73;100.00;98597.06;15261588;19;20026;-50
2023/02/17 07:43:01;;;;;;;3.28;2.92;;;;;;;7.78;100.00;98583.22;15264537;19;20024;-49
2023/02/17 07:48:28;;;;;;;2.60;2.40;;;;;;;7.92;100.00;98577.47;15265878;19;20094;-48
2023/02/17 07:53:53;;;;;;;2.30;2.10;;;;;;;8.05;100.00;98571.81;15266194;19;20022;-51
2023/02/17 07:59:19;;;;;;;2.35;2.15;;;;;;;8.20;100.00;98576.75;15275946;19;20023;-53
2023/02/17 08:04:53;;;;;;;2.38;1.90;;;;;;;8.32;100.00;98564.88;15274344;19;20086;-54
2023/02/17 08:15:55;;;;;;;1.63;1.50;;;;;;;8.66;100.00;98552.81;15279792;19;20090;-50
2023/02/17 08:21:23;;;;;;;1.77;1.67;;;;;;;8.73;100.00;98557.44;15274292;19;20369;-54
2023/02/17 08:26:48;;;;;;;1.88;1.65;;;;;;;8.80;100.00;98530.84;15281636;19;20015;-49
2023/02/17 08:32:15;;;;;;;2.08;1.60;;;;;;;8.87;100.00;98545.41;15275411;19;20092;-51
2023/02/17 08:37:43;;;;;;;1.70;1.60;;;;;;;8.97;100.00;98531.06;15278097;19;20085;-53
2023/02/17 08:43:09;;;;;;;3.28;1.35;;;;;;;9.05;100.00;98532.03;15268874;19;20025;-49
2023/02/17 08:48:33;;;;;;;2.00;1.60;;;;;;;9.13;100.00;98525.88;15277008;19;20043;-53
2023/02/17 08:54:02;;;;;;;1.60;1.50;;;;;;;9.21;100.00;98517.94;15268469;19;20023;-47
2023/02/17 08:59:26;;;;;;;1.50;1.40;;;;;;;9.31;100.00;98522.41;15273040;19;20025;-51
2023/02/17 09:04:58;;;;;;;1.48;1.20;;;;;;;9.41;100.00;98512.44;15273613;19;20009;-49
2023/02/17 09:10:25;;;;;;;1.27;1.20;;;;;;;9.48;100.00;98518.06;15274559;19;20018;-49
2023/02/17 09:15:52;;;;;;;1.83;1.40;;;;;;;9.58;100.00;98508.06;15271225;19;20527;-50
2023/02/17 09:21:18;;;;;;;1.23;1.20;;;;;;;9.68;100.00;98519.59;15272066;19;20026;-47
2023/02/17 09:26:46;;;;;;;1.75;1.25;;;;;;;9.76;100.00;98526.91;15276171;19;20040;-48
2023/02/17 09:32:11;;;;;;;1.42;1.33;;;;;;;9.81;100.00;98534.50;15271178;19;20030;-51
2023/02/17 09:37:35;;;;;;;1.33;1.23;;;;;;;9.84;100.00;98524.28;15274895;19;20127;-51
2023/02/17 09:43:04;;;;;;;1.20;1.10;;;;;;;9.83;100.00;98517.22;15269705;19;20036;-48
2023/02/17 09:48:33;;;;;;;1.77;1.20;;;;;;;9.89;100.00;98499.59;15263619;19;20010;-49
2023/02/17 09:54:05;;;;;;;1.10;1.00;;;;;;;9.93;100.00;98505.53;15268150;19;20483;-49
2023/02/17 09:59:40;;;;;;;1.45;1.15;;;;;;;10.00;100.00;98477.00;15268581;19;20017;-47
2023/02/17 10:05:16;;;;;;;1.20;1.05;;;;;;;10.14;100.00;98471.06;15245143;19;20009;-51
2023/02/17 10:10:53;;;;;;;0.93;0.90;;;;;;;10.26;100.00;98473.47;15268097;19;20476;-47
2023/02/17 10:16:25;;;;;;;2.50;1.05;;;;;;;10.26;100.00;98487.78;15269846;19;20014;-49
2023/02/17 10:21:57;;;;;;;0.82;0.80;;;;;;;10.31;100.00;98481.91;15262191;19;20015;-50
2023/02/17 10:27:43;;;;;;;1.00;0.90;;;;;;;10.25;100.00;98479.88;15269093;19;20090;-53
2023/02/17 10:33:22;;;;;;;0.63;0.63;;;;;;;10.27;100.00;98476.00;15267491;19;20073;-48
2023/02/17 10:38:52;;;;;;;0.80;0.80;;;;;;;10.33;100.00;98463.75;15265572;19;20051;-48
2023/02/17 10:44:22;;;;;;;0.95;0.95;;;;;;;10.33;100.00;98480.78;15266472;19;20018;-49
2023/02/17 10:49:53;;;;;;;1.00;0.82;;;;;;;10.34;100.00;98484.28;15264796;19;20651;-51
2023/02/17 10:55:27;;;;;;;0.80;0.80;;;;;;;10.39;100.00;98471.25;15269640;19;20022;-52
2023/02/17 11:00:56;;;;;;;1.52;1.00;;;;;;;10.44;100.00;98471.59;15261900;19;20024;-51
2023/02/17 11:06:29;;;;;;;0.80;0.75;;;;;;;10.46;100.00;98458.81;15267460;19;20035;-48
2023/02/17 11:12:00;;;;;;;1.00;0.80;;;;;;;10.54;100.00;98462.56;15263827;19;20025;-51
2023/02/17 11:17:32;;;;;;;1.27;0.98;;;;;;;10.60;100.00;98443.91;15267908;19;20015;-51
2023/02/17 11:23:06;;;;;;;0.80;0.80;;;;;;;10.62;100.00;98447.28;15255769;19;20018;-48
2023/02/17 11:28:32;;;;;;;0.80;0.80;;;;;;;10.64;100.00;98439.88;15261964;19;20370;-51
2023/02/17 11:33:56;;;;;;;0.70;0.70;;;;;;;10.64;100.00;98447.16;15262523;19;20031;-48
2023/02/17 11:39:24;;;;;;;0.70;0.70;;;;;;;10.68;100.00;98437.72;15260365;19;20085;-49
2023/02/17 11:44:48;;;;;;;0.60;0.60;;;;;;;10.79;100.00;98425.81;15266737;19;20019;-49
2023/02/17 11:50:29;;;;;;;0.55;0.50;;;;;;;10.87;100.00;98425.00;15262482;19;20061;-49
2023/02/17 11:56:10;;;;;;;0.88;0.52;;;;;;;10.96;100.00;98394.38;15261599;19;20025;-49
2023/02/17 12:01:50;;;;;;;0.50;0.50;;;;;;;11.08;100.00;98398.44;15259440;19;20044;-47
2023/02/17 12:07:56;;;;;;;0.50;0.50;;;;;;;11.18;100.00;98400.97;15266464;19;20043;-48
2023/02/17 12:13:33;;;;;;;0.40;0.40;;;;;;;11.26;100.00;98389.34;15259361;19;20424;-47
2023/02/17 12:19:08;;;;;;;0.98;0.50;;;;;;;11.33;100.00;98382.31;15260912;19;20028;-50
2023/02/17 12:24:51;;;;;;;1.45;0.57;;;;;;;11.37;100.00;98380.09;15261340;19;20362;-47
2023/02/17 12:30:31;;;;;;;0.82;0.57;;;;;;;11.37;100.00;98356.66;15257632;19;20021;-52
2023/02/17 12:35:58;;;;;;;0.50;0.50;;;;;;;11.36;100.00;98383.81;15263442;19;20588;-49
2023/02/17 12:41:27;;;;;;;1.02;0.70;;;;;;;11.33;100.00;98382.31;15263621;19;20040;-50
2023/02/17 12:46:58;;;;;;;0.70;0.70;;;;;;;11.30;100.00;98362.88;15279673;19;20026;-48
2023/02/17 12:52:27;;;;;;;0.50;0.50;;;;;;;11.31;100.00;98370.84;15273168;19;20019;-53
2023/02/17 12:57:57;;;;;;;0.60;0.50;;;;;;;11.35;100.00;98334.41;15276227;19;20018;-54
2023/02/17 13:03:31;;;;;;;0.40;0.40;;;;;;;11.44;100.00;98337.13;15270633;19;20463;-47
2023/02/17 13:09:00;;;;;;;1.30;0.60;;;;;;;11.52;100.00;98324.47;15276936;19;20483;-50
2023/02/17 13:14:34;;;;;;;0.43;0.43;;;;;;;11.61;100.00;98330.69;15272364;19;20498;-49
2023/02/17 13:20:26;;;;;;;0.40;0.40;;;;;;;11.67;100.00;98300.34;15272693;19;20600;-49
2023/02/17 13:25:51;;;;;;;0.30;0.30;;;;;;;11.80;100.00;98309.75;15276027;19;20483;-49
2023/02/17 13:31:20;;;;;;;0.40;0.40;;;;;;;11.92;100.00;98286.78;15268130;19;20388;-48
2023/02/17 13:36:47;;;;;;;1.02;0.50;;;;;;;12.07;100.00;98262.63;15276064;19;20038;-47
2023/02/17 13:42:38;;;;;;;0.40;0.38;;;;;;;12.20;100.00;98275.56;15268369;19;20026;-50
2023/02/17 13:48:04;;;;;;;0.53;0.40;;;;;;;12.23;100.00;98280.63;15274444;19;20532;-48
2023/02/17 13:53:34;;;;;;;0.32;0.32;;;;;;;12.26;100.00;98296.47;15270009;19;20029;-50
2023/02/17 13:58:58;;;;;;;0.38;0.30;;;;;;;12.36;100.00;98265.72;15271566;19;20038;-48
2023/02/17 14:04:32;;;;;;;0.70;0.40;;;;;;;12.40;100.00;98248.13;15265094;19;20010;-48
2023/02/17 14:10:00;;;;;;;0.50;0.50;;;;;;;12.41;100.00;98244.38;15270143;19;20357;-48
2023/02/17 14:15:25;;;;;;;0.52;0.40;;;;;;;12.46;100.00;98255.53;15272479;19;20341;-49
2023/02/17 14:21:02;;;;;;;0.52;0.40;;;;;;;12.42;100.00;98246.06;15268920;19;20035;-50
2023/02/17 14:26:46;;;;;;;0.55;0.50;;;;;;;12.44;100.00;98253.00;15271487;19;20010;-52
2023/02/17 14:32:33;;;;;;;0.73;0.50;;;;;;;12.45;100.00;98257.38;15267251;19;20015;-50
2023/02/17 14:37:57;;;;;;;0.63;0.50;;;;;;;12.50;100.00;98251.44;15266935;19;20018;-51
2023/02/17 14:43:25;;;;;;;0.32;0.32;;;;;;;12.56;100.00;98268.81;15270940;19;20018;-50
2023/02/17 14:48:49;;;;;;;0.40;0.40;;;;;;;12.64;100.00;98252.53;15269636;19;20030;-47
2023/02/17 14:54:17;;;;;;;0.43;0.43;;;;;;;12.60;100.00;98243.94;15262938;19;20039;-49
2023/02/17 14:59:46;;;;;;;0.47;0.45;;;;;;;12.59;100.00;98261.19;15268663;19;20021;-47
2023/02/17 15:05:18;;;;;;;0.40;0.40;;;;;;;12.55;100.00;98283.34;15262712;19;20088;-49
2023/02/17 15:10:43;;;;;;;0.50;0.40;;;;;;;12.54;100.00;98268.97;15262781;19;20014;-48
2023/02/17 15:16:11;;;;;;;0.40;0.40;;;;;;;12.48;100.00;98292.13;15266122;19;20310;-48
2023/02/17 15:21:39;;;;;;;0.40;0.40;;;;;;;12.44;100.00;98295.38;15265104;19;20060;-48
2023/02/17 15:27:04;;;;;;;0.80;0.50;;;;;;;12.48;100.00;98292.13;15268934;19;20025;-48
2023/02/17 15:32:32;;;;;;;0.55;0.43;;;;;;;12.44;100.00;98279.16;15263050;19;20394;-53
2023/02/17 15:37:58;;;;;;;0.50;0.50;;;;;;;12.44;100.00;98292.66;15266844;19;20021;-48
2023/02/17 15:43:24;;;;;;;0.40;0.40;;;;;;;12.39;100.00;98274.28;15257655;19;20011;-48
2023/02/17 15:48:52;;;;;;;0.68;0.40;;;;;;;12.38;100.00;98240.19;15264836;19;20006;-51
2023/02/17 15:54:18;;;;;;;0.30;0.30;;;;;;;12.40;100.00;98250.84;15258796;19;20069;-49
2023/02/17 15:59:44;;;;;;;0.38;0.30;;;;;;;12.46;100.00;98252.81;15259355;19;20078;-50
2023/02/17 16:05:19;;;;;;;0.47;0.30;;;;;;;12.42;100.00;98246.06;15262533;19;20036;-50
2023/02/17 16:10:45;;;;;;;0.98;0.40;;;;;;;12.38;100.00;98247.47;15264243;19;20018;-51
2023/02/17 16:16:09;;;;;;;0.40;0.40;;;;;;;12.40;100.00;98240.03;15266752;19;20011;-52
2023/02/17 16:21:38;;;;;;;0.77;0.32;;;;;;;12.40;100.00;98256.25;15274710;19;20010;-50
2023/02/17 16:27:02;;;;;;;0.30;0.30;;;;;;;12.31;100.00;98253.56;15282146;19;20022;-51
2023/02/17 16:32:27;;;;;;;0.30;0.30;;;;;;;12.36;100.00;98258.44;15271342;19;20030;-48
2023/02/17 16:38:00;;;;;;;0.40;0.40;;;;;;;12.36;100.00;98249.50;15279554;19;21095;-51
2023/02/17 16:43:29;;;;;;;0.32;0.32;;;;;;;12.43;100.00;98255.88;15272040;19;20098;-53
2023/02/17 16:48:55;;;;;;;0.40;0.35;;;;;;;12.47;100.00;98268.00;15272107;19;20763;-53
2023/02/17 16:54:25;;;;;;;0.30;0.30;;;;;;;12.40;100.00;98258.94;15262633;19;20381;-53
2023/02/17 16:59:54;;;;;;;1.20;0.38;;;;;;;12.44;100.00;98257.56;15268190;19;20007;-48
2023/02/17 17:05:27;;;;;;;0.40;0.40;;;;;;;12.47;100.00;98257.19;15286428;19;20068;-51
2023/02/17 17:10:55;;;;;;;0.40;0.40;;;;;;;12.44;100.00;98262.94;15277886;19;20049;-51
2023/02/17 17:16:21;;;;;;;1.45;0.40;;;;;;;12.55;100.00;98286.88;15277586;19;20380;-53
2023/02/17 17:21:46;;;;;;;1.40;0.47;;;;;;;12.47;100.00;98284.22;15272858;19;20023;-51
2023/02/17 17:27:14;;;;;;;0.90;0.30;;;;;;;12.42;100.00;98297.41;15275953;19;20019;-52
2023/02/17 17:32:40;;;;;;;1.60;0.40;;;;;;;12.30;100.00;98295.09;15272740;19;20022;-53
2023/02/17 17:38:04;;;;;;;0.30;0.30;;;;;;;12.30;100.00;98288.88;15278342;19;20022;-51
2023/02/17 17:43:41;;;;;;;0.47;0.40;;;;;;;12.05;100.00;98285.44;15271339;19;20614;-49
2023/02/17 17:49:09;;;;;;;0.45;0.45;;;;;;;11.79;100.00;98306.19;15273506;19;20014;-50
2023/02/17 17:54:34;;;;;;;0.40;0.38;;;;;;;11.67;100.00;98337.25;15271010;19;20022;-48
2023/02/17 18:00:01;;;;;;;0.70;0.63;;;;;;;11.45;100.00;98368.47;15273846;19;20017;-52
2023/02/17 18:05:32;;;;;;;1.48;0.70;;;;;;;11.24;100.00;98388.66;15273225;19;20018;-51
2023/02/17 18:10:57;;;;;;;0.93;0.60;;;;;;;11.05;100.00;98419.50;15270319;19;20033;-54
2023/02/17 18:16:26;;;;;;;0.68;0.60;;;;;;;10.97;100.00;98444.56;15273032;19;20054;-52
2023/02/17 18:21:52;;;;;;;0.82;0.80;;;;;;;10.81;100.00;98491.19;15265321;19;20026;-52
2023/02/17 18:27:16;;;;;;;0.82;0.65;;;;;;;10.81;100.00;98503.78;15270176;19;20022;-53
2023/02/17 18:32:44;;;;;;;1.02;0.80;;;;;;;10.74;100.00;98531.41;15267080;19;20480;-49
2023/02/17 18:38:08;;;;;;;0.80;0.70;;;;;;;10.71;100.00;98545.19;15268254;19;20365;-53
2023/02/17 18:43:34;;;;;;;0.90;0.73;;;;;;;10.75;100.00;98560.03;15267558;19;20089;-55
2023/02/17 18:49:03;;;;;;;1.45;0.90;;;;;;;10.75;100.00;98562.72;15267093;19;20018;-51
2023/02/17 18:54:29;;;;;;;0.60;0.60;;;;;;;10.74;100.00;98584.44;15264954;19;20488;-56
2023/02/17 18:59:54;;;;;;;1.67;1.00;;;;;;;10.63;100.00;98642.13;15269642;19;20022;-54
2023/02/17 19:05:29;;;;;;;1.45;1.10;;;;;;;10.36;100.00;98629.56;15268871;19;20021;-55
2023/02/17 19:10:55;;;;;;;1.40;1.30;;;;;;;10.00;100.00;98587.34;15268513;19;20808;-55
2023/02/17 19:16:23;;;;;;;1.40;1.05;;;;;;;9.81;100.00;98578.44;15272299;19;20025;-53
2023/02/17 19:21:51;;;;;;;1.30;1.10;;;;;;;9.74;100.00;98561.19;15264858;19;20026;-54
2023/02/17 19:27:17;;;;;;;1.70;1.27;;;;;;;9.75;100.00;98589.78;15262576;19;20017;-54
2023/02/17 19:32:43;;;;;;;3.00;1.60;;;;;;;9.65;100.00;98594.38;15266507;19;20022;-53
2023/02/17 19:38:10;;;;;;;1.70;1.60;;;;;;;9.66;100.00;98580.78;15270411;19;20025;-52
2023/02/17 19:43:35;;;;;;;2.05;1.50;;;;;;;9.68;100.00;98591.41;15266592;19;20050;-50
2023/02/17 19:48:59;;;;;;;1.80;1.40;;;;;;;9.68;100.00;98572.56;15268675;19;20384;-49
2023/02/17 19:54:27;;;;;;;1.38;1.20;;;;;;;9.77;100.00;98565.41;15278540;19;20021;-50
2023/02/17 19:59:52;;;;;;;1.45;1.20;;;;;;;9.82;100.00;98560.44;15280608;19;20036;-53
2023/02/17 20:05:23;;;;;;;1.63;1.40;;;;;;;9.78;100.00;98546.44;15280926;19;20739;-53
2023/02/17 20:10:51;;;;;;;1.33;1.20;;;;;;;9.82;100.00;98533.53;15281098;19;20081;-51
2023/02/17 20:16:18;;;;;;;1.83;1.20;;;;;;;9.91;100.00;98529.91;15284857;19;20018;-51
2023/02/17 20:21:43;;;;;;;2.25;1.25;;;;;;;9.99;100.00;98550.66;15280989;19;20037;-51
2023/02/17 20:27:10;;;;;;;1.15;1.15;;;;;;;10.05;100.00;98490.84;15227027;19;20010;-52
2023/02/17 20:32:35;;;;;;;1.40;1.10;;;;;;;10.02;100.00;98510.81;15274712;19;20826;-53
2023/02/17 20:37:59;;;;;;;1.25;1.10;;;;;;;10.08;100.00;98512.03;15281758;19;20026;-50
2023/02/17 20:43:27;;;;;;;1.33;1.00;;;;;;;10.29;100.00;98490.16;15274886;19;20030;-48
2023/02/17 20:48:51;;;;;;;2.08;1.10;;;;;;;10.27;100.00;98516.41;15283261;19;20011;-48
2023/02/17 20:54:16;;;;;;;1.50;1.00;;;;;;;10.27;100.00;98550.56;15278717;19;20025;-47
2023/02/17 20:59:44;;;;;;;1.50;1.00;;;;;;;10.16;100.00;98557.91;15278316;19;20505;-54
2023/02/17 21:05:09;;;;;;;1.20;1.10;;;;;;;10.19;100.00;98556.72;15270836;19;20432;-52
2023/02/17 21:10:38;;;;;;;4.13;1.20;;;;;;;10.24;100.00;98559.78;15278096;19;20025;-53
2023/02/17 21:16:06;;;;;;;1.00;0.90;;;;;;;10.29;100.00;98589.78;15281206;19;20022;-52
2023/02/17 21:21:32;;;;;;;1.85;0.90;;;;;;;10.28;100.00;98557.66;15271685;19;20025;-54
2023/02/17 21:26:57;;;;;;;1.70;0.90;;;;;;;10.22;100.00;98566.34;15276937;19;20357;-53
2023/02/17 21:32:25;;;;;;;2.35;1.10;;;;;;;10.25;100.00;98557.94;15272752;19;20031;-54
2023/02/17 21:37:50;;;;;;;1.27;0.90;;;;;;;10.20;100.00;98560.25;15273711;19;20014;-54
2023/02/17 21:48:55;;;;;;;0.80;0.70;;;;;;;10.28;100.00;98598.03;15278781;19;20463;-54
2023/02/17 21:54:20;;;;;;;0.90;0.80;;;;;;;10.43;100.00;98587.59;15264214;19;20014;-54
2023/02/17 21:59:45;;;;;;;0.90;0.90;;;;;;;10.39;100.00;98607.75;15276482;19;20027;-53
2023/02/17 22:05:13;;;;;;;2.00;1.05;;;;;;;10.45;100.00;98594.50;15275230;19;20045;-54
2023/02/17 22:10:38;;;;;;;1.40;0.98;;;;;;;10.47;100.00;98610.50;15265220;19;20352;-53
2023/02/17 22:16:06;;;;;;;2.67;1.00;;;;;;;10.41;100.00;98600.34;15274553;19;20025;-53
2023/02/17 22:21:34;;;;;;;1.38;1.20;;;;;;;10.39;100.00;98613.13;15265256;19;20029;-55
2023/02/17 22:26:58;;;;;;;1.95;1.10;;;;;;;10.42;100.00;98602.06;15274927;19;20018;-53
2023/02/17 22:32:23;;;;;;;2.30;1.13;;;;;;;10.36;100.00;98602.63;15269638;19;20081;-53
2023/02/17 22:37:50;;;;;;;1.77;1.00;;;;;;;10.46;100.00;98625.00;15274691;19;20010;-54
2023/02/17 22:43:15;;;;;;;1.42;1.20;;;;;;;10.46;100.00;98628.50;15262217;19;20025;-54
2023/02/17 22:48:41;;;;;;;1.17;1.08;;;;;;;10.58;100.00;98622.88;15274267;19;20262;-55
2023/02/17 22:54:09;;;;;;;2.20;1.30;;;;;;;10.54;100.00;98619.66;15268304;19;20034;-54
2023/02/17 22:59:34;;;;;;;2.35;1.25;;;;;;;10.56;100.00;98608.72;15270405;19;20039;-54
2023/02/17 23:04:59;;;;;;;1.73;1.30;;;;;;;10.50;100.00;98631.75;15266049;19;20419;-56
2023/02/17 23:10:27;;;;;;;2.17;1.27;;;;;;;10.42;100.00;98654.06;15270242;19;20129;-52
2023/02/17 23:15:52;;;;;;;2.35;1.63;;;;;;;10.25;100.00;98647.66;15266623;19;20732;-53
2023/02/17 23:21:18;;;;;;;2.05;1.70;;;;;;;10.10;100.00;98668.88;15269563;19;20014;-53
2023/02/17 23:26:46;;;;;;;2.47;2.00;;;;;;;9.78;100.00;98724.03;15269831;19;20017;-54
2023/02/17 23:32:10;;;;;;;3.40;2.75;;;;;;;9.31;100.00;98746.41;15266417;19;20019;-52
2023/02/17 23:37:35;;;;;;;4.30;3.53;;;;;;;9.09;100.00;98787.91;15272526;19;20026;-52
2023/02/17 23:43:04;;;;;;;4.78;3.95;;;;;;;8.83;100.00;98793.84;15265903;19;20015;-55
2023/02/17 23:48:29;;;;;;;6.10;4.70;;;;;;;8.73;100.00;98811.81;15264366;19;20022;-52
2023/02/17 23:53:53;;;;;;;5.90;4.80;;;;;;;8.62;100.00;98829.75;15263550;19;20058;-54
2023/02/17 23:59:21;;;;;;;7.05;4.97;;;;;;;8.53;100.00;98852.03;15266123;19;20006;-54
